Time;durP1;ratioP1;P1;durP2;ratioP2;P2;SDS_P1;SDS_P2;PMS_P1;PMS_P2;Temp;Humidity;BMP_temperature;BMP_pressure;BME280_temperature;BME280_humidity;BME280_pressure;Samples;Min_cycle;Max_cycle;Signal;HPM_P1;HPM_P2
2021/08/12 00:00:49;;;;;;;9.35;7.90;;;14.40;99.90;;;;;;5115658;28;20464;-68
2021/08/12 00:03:14;;;;;;;10.93;8.02;;;14.40;99.90;;;;;;5115472;28;20032;-71
2021/08/12 00:05:40;;;;;;;14.45;8.13;;;14.40;99.90;;;;;;5114966;28;20046;-68
2021/08/12 00:08:06;;;;;;;18.80;8.27;;;14.40;99.90;;;;;;5115653;28;20424;-71
2021/08/12 00:10:31;;;;;;;29.25;9.18;;;14.40;99.90;;;;;;5114789;28;20103;-70
2021/08/12 00:12:57;;;;;;;27.10;8.88;;;14.40;99.90;;;;;;5114950;28;20093;-71
2021/08/12 00:15:22;;;;;;;23.15;8.35;;;14.40;99.90;;;;;;5115511;28;20460;-69
2021/08/12 00:17:48;;;;;;;20.17;8.40;;;14.30;99.90;;;;;;5115591;28;20093;-69
2021/08/12 00:20:13;;;;;;;17.45;8.13;;;14.30;99.90;;;;;;5113020;28;20188;-69
2021/08/12 00:22:39;;;;;;;11.40;7.68;;;14.30;99.90;;;;;;5115241;28;20030;-69
2021/08/12 00:25:05;;;;;;;13.30;7.78;;;14.30;99.90;;;;;;5115297;28;20020;-70
2021/08/12 00:27:31;;;;;;;28.85;10.40;;;14.30;99.90;;;;;;5114093;28;20031;-69
2021/08/12 00:29:57;;;;;;;23.02;9.60;;;14.20;99.90;;;;;;5113689;28;20361;-70
2021/08/12 00:32:22;;;;;;;22.13;8.90;;;14.20;99.90;;;;;;5112923;28;20084;-69
2021/08/12 00:34:47;;;;;;;16.67;9.30;;;14.20;99.90;;;;;;5115064;28;20016;-69
2021/08/12 00:37:13;;;;;;;17.08;8.98;;;14.20;99.90;;;;;;5114703;28;20028;-70
2021/08/12 00:39:39;;;;;;;13.63;8.00;;;14.20;99.90;;;;;;5114304;28;20036;-69
2021/08/12 00:42:05;;;;;;;13.63;8.48;;;14.20;99.90;;;;;;5114882;28;20042;-69
2021/08/12 00:44:31;;;;;;;11.65;8.10;;;14.20;99.90;;;;;;5114618;28;20031;-69
2021/08/12 00:46:56;;;;;;;11.90;7.35;;;14.10;99.90;;;;;;5114510;28;20024;-69
2021/08/12 00:49:22;;;;;;;9.50;7.55;;;14.10;99.90;;;;;;5114414;28;20076;-72
2021/08/12 00:51:48;;;;;;;9.15;7.43;;;14.10;99.90;;;;;;5113418;28;20035;-70
2021/08/12 00:54:14;;;;;;;15.00;8.30;;;14.00;99.90;;;;;;5112429;28;20018;-70
2021/08/12 00:56:40;;;;;;;15.63;8.00;;;14.00;99.90;;;;;;5114549;28;20028;-68
2021/08/12 00:59:07;;;;;;;10.80;7.97;;;14.00;99.90;;;;;;5114467;28;20016;-68
2021/08/12 01:01:33;;;;;;;10.05;7.45;;;14.00;99.90;;;;;;5089112;28;20024;-72
2021/08/12 01:03:59;;;;;;;9.68;7.72;;;14.00;99.90;;;;;;5093068;28;20024;-69
2021/08/12 01:06:29;;;;;;;9.75;8.15;;;14.00;99.90;;;;;;5091913;28;20480;-67
2021/08/12 01:09:06;;;;;;;10.07;7.65;;;14.00;99.90;;;;;;5093347;28;20020;-67
2021/08/12 01:11:41;;;;;;;13.77;8.55;;;14.00;99.90;;;;;;5091044;28;20434;-67
2021/08/12 01:14:30;;;;;;;28.63;9.80;;;14.00;99.90;;;;;;5094144;28;20342;-68
2021/08/12 01:17:00;;;;;;;12.27;8.38;;;13.90;99.90;;;;;;5093795;28;20437;-67
2021/08/12 01:19:53;;;;;;;14.13;8.80;;;13.90;99.90;;;;;;5092151;28;20020;-68
2021/08/12 01:22:21;;;;;;;10.90;8.70;;;13.90;99.90;;;;;;5092849;28;20073;-68
2021/08/12 01:24:51;;;;;;;10.07;8.65;;;13.90;99.90;;;;;;5093643;28;20073;-69
2021/08/12 01:27:19;;;;;;;9.82;8.38;;;13.90;99.90;;;;;;5092106;28;20024;-68
2021/08/12 01:29:58;;;;;;;11.38;8.43;;;13.90;99.90;;;;;;5092852;28;20031;-68
2021/08/12 01:32:33;;;;;;;8.38;7.43;;;13.90;99.90;;;;;;5092747;28;20032;-68
2021/08/12 01:35:09;;;;;;;13.27;9.13;;;13.80;99.90;;;;;;5092236;28;20081;-67
2021/08/12 01:37:47;;;;;;;9.27;8.27;;;13.90;99.90;;;;;;5092547;28;20020;-69
2021/08/12 01:40:16;;;;;;;10.85;8.52;;;13.80;99.90;;;;;;5093333;28;20465;-69
2021/08/12 01:42:43;;;;;;;9.30;8.27;;;13.80;99.90;;;;;;5091565;28;20361;-70
2021/08/12 01:45:10;;;;;;;9.98;7.72;;;13.80;99.90;;;;;;5093194;28;20031;-68
2021/08/12 01:47:39;;;;;;;10.88;8.00;;;13.80;99.90;;;;;;5093348;28;20036;-68
2021/08/12 01:50:06;;;;;;;9.50;8.50;;;13.80;99.90;;;;;;5091210;28;20499;-67
2021/08/12 01:52:34;;;;;;;13.40;9.70;;;13.80;99.90;;;;;;5093074;28;20472;-68
2021/08/12 01:55:01;;;;;;;9.27;8.25;;;13.80;99.90;;;;;;5093345;28;20419;-70
2021/08/12 01:57:27;;;;;;;10.77;9.05;;;13.80;99.90;;;;;;5092313;28;20024;-71
2021/08/12 01:59:53;;;;;;;9.48;8.27;;;13.90;99.90;;;;;;5091665;28;20380;-69
2021/08/12 02:02:19;;;;;;;10.63;8.82;;;13.90;99.90;;;;;;5091659;28;20103;-71
2021/08/12 02:04:46;;;;;;;13.55;8.80;;;13.90;99.90;;;;;;5092557;28;20103;-69
2021/08/12 02:07:12;;;;;;;21.23;10.25;;;13.90;99.90;;;;;;5092277;28;20024;-68
2021/08/12 02:09:39;;;;;;;13.00;9.23;;;13.90;99.90;;;;;;5092651;28;20030;-69
2021/08/12 02:12:07;;;;;;;12.13;9.43;;;13.90;99.90;;;;;;5090692;28;20032;-69
2021/08/12 02:14:34;;;;;;;12.13;8.77;;;13.90;99.90;;;;;;5092256;28;20439;-68
2021/08/12 02:16:59;;;;;;;10.65;8.48;;;13.90;99.90;;;;;;5092861;28;20035;-70
2021/08/12 02:19:25;;;;;;;12.10;8.35;;;14.00;99.90;;;;;;5091897;28;20016;-69
2021/08/12 02:22:07;;;;;;;12.65;8.57;;;14.00;99.90;;;;;;5087863;28;20101;-68
2021/08/12 02:24:41;;;;;;;10.98;9.18;;;14.00;99.90;;;;;;5072308;28;20020;-70
2021/08/12 02:27:15;;;;;;;11.50;9.10;;;14.00;99.90;;;;;;5080350;28;20464;-69
2021/08/12 02:29:41;;;;;;;10.25;9.15;;;14.10;99.90;;;;;;5091419;28;20016;-69
2021/08/12 02:32:11;;;;;;;9.73;8.70;;;14.10;99.90;;;;;;5091996;28;20040;-69
2021/08/12 02:34:39;;;;;;;10.10;8.30;;;14.10;99.90;;;;;;5093137;28;20021;-70
2021/08/12 02:37:08;;;;;;;9.88;8.63;;;14.10;99.90;;;;;;5092742;28;20017;-71
2021/08/12 02:39:35;;;;;;;9.55;8.07;;;14.00;99.90;;;;;;5091748;28;20114;-68
2021/08/12 02:42:03;;;;;;;9.82;8.93;;;14.00;99.90;;;;;;5092691;28;20020;-69
2021/08/12 02:44:30;;;;;;;10.15;8.60;;;14.00;99.90;;;;;;5091803;28;20024;-68
2021/08/12 02:46:58;;;;;;;9.55;7.95;;;14.00;99.90;;;;;;5090480;28;20024;-68
2021/08/12 02:49:27;;;;;;;10.75;8.98;;;13.90;99.90;;;;;;5090020;28;20032;-68
2021/08/12 02:51:54;;;;;;;9.73;8.73;;;13.90;99.90;;;;;;5092359;28;20459;-68
2021/08/12 02:54:20;;;;;;;10.00;8.82;;;13.90;99.90;;;;;;5091637;28;20020;-68
2021/08/12 02:56:47;;;;;;;11.63;8.90;;;13.80;99.90;;;;;;5092514;28;20112;-68
2021/08/12 02:59:14;;;;;;;10.05;8.38;;;13.80;99.90;;;;;;5092396;28;20082;-68
2021/08/12 03:01:40;;;;;;;9.90;8.85;;;13.80;99.90;;;;;;5090563;28;20020;-68
2021/08/12 03:04:07;;;;;;;10.32;9.00;;;13.80;99.90;;;;;;5092471;28;20048;-68
2021/08/12 03:06:33;;;;;;;14.18;10.55;;;13.80;99.90;;;;;;5092237;28;20033;-68
2021/08/12 03:08:59;;;;;;;12.63;9.98;;;13.80;99.90;;;;;;5092278;28;20021;-70
2021/08/12 03:11:25;;;;;;;14.23;10.10;;;13.70;99.90;;;;;;5091842;28;20051;-68
2021/08/12 03:13:51;;;;;;;10.80;9.57;;;13.70;99.90;;;;;;5092519;28;20013;-68
2021/08/12 03:16:17;;;;;;;12.07;10.23;;;13.70;99.90;;;;;;5090198;28;20048;-68
2021/08/12 03:18:43;;;;;;;13.38;9.52;;;13.70;99.90;;;;;;5092327;28;20089;-68
2021/08/12 03:21:14;;;;;;;12.05;9.88;;;13.70;99.90;;;;;;5091624;28;20051;-69
2021/08/12 03:23:40;;;;;;;14.88;10.40;;;13.60;99.90;;;;;;5092360;28;20023;-70
2021/08/12 03:26:06;;;;;;;11.15;9.95;;;13.60;99.90;;;;;;5092060;28;20020;-67
2021/08/12 03:28:33;;;;;;;12.40;10.63;;;13.60;99.90;;;;;;5091370;28;20028;-68
2021/08/12 03:30:59;;;;;;;11.55;9.82;;;13.50;99.90;;;;;;5092070;28;20035;-68
2021/08/12 03:33:26;;;;;;;12.23;9.98;;;13.50;99.90;;;;;;5092051;28;20024;-68
2021/08/12 03:35:52;;;;;;;15.55;11.60;;;13.50;99.90;;;;;;5094762;28;20027;-68
2021/08/12 03:38:20;;;;;;;12.40;11.10;;;13.50;99.90;;;;;;5095472;28;20101;-68
2021/08/12 03:40:46;;;;;;;13.43;11.75;;;13.40;99.90;;;;;;5095570;28;20024;-70
2021/08/12 03:43:11;;;;;;;11.68;10.48;;;13.40;99.90;;;;;;5094886;28;20388;-69
2021/08/12 03:45:37;;;;;;;12.85;11.43;;;13.40;99.90;;;;;;5095697;28;20016;-70
2021/08/12 03:48:02;;;;;;;11.93;10.68;;;13.40;99.90;;;;;;5095551;28;20377;-74
2021/08/12 03:50:28;;;;;;;14.10;10.70;;;13.40;99.90;;;;;;5094438;28;20059;-68
2021/08/12 03:52:53;;;;;;;12.25;11.00;;;13.40;99.90;;;;;;5095575;28;20027;-71
2021/08/12 03:55:20;;;;;;;11.90;10.18;;;13.40;99.90;;;;;;5093701;28;20036;-68
2021/08/12 03:57:46;;;;;;;13.88;11.50;;;13.30;99.90;;;;;;5094722;28;20052;-68
2021/08/12 04:00:13;;;;;;;13.40;11.27;;;13.40;99.90;;;;;;5095262;28;20047;-70
2021/08/12 04:02:39;;;;;;;13.77;11.13;;;13.30;99.90;;;;;;5095288;28;20040;-69
2021/08/12 04:05:05;;;;;;;13.57;11.32;;;13.40;99.90;;;;;;5093343;28;20076;-70
2021/08/12 04:07:31;;;;;;;12.68;11.38;;;13.40;99.90;;;;;;5095025;28;20043;-71
2021/08/12 04:09:56;;;;;;;12.75;11.07;;;13.40;99.90;;;;;;5093485;28;20033;-70
2021/08/12 04:12:22;;;;;;;12.50;11.20;;;13.40;99.90;;;;;;5092806;28;20121;-71
2021/08/12 04:14:48;;;;;;;12.90;11.60;;;13.30;99.90;;;;;;5095315;28;20028;-70
2021/08/12 04:17:13;;;;;;;13.45;12.05;;;13.30;99.90;;;;;;5094987;28;20032;-69
2021/08/12 04:19:39;;;;;;;13.40;10.80;;;13.30;99.90;;;;;;5092946;28;20031;-68
2021/08/12 04:22:04;;;;;;;14.20;11.75;;;13.30;99.90;;;;;;5093888;28;20031;-70
2021/08/12 04:24:30;;;;;;;12.30;11.10;;;13.30;99.90;;;;;;5093888;28;20379;-69
2021/08/12 04:26:55;;;;;;;13.57;12.18;;;13.30;99.90;;;;;;5093427;28;20020;-70
2021/08/12 04:29:21;;;;;;;12.73;11.43;;;13.30;99.90;;;;;;5094838;28;20032;-70
2021/08/12 04:31:46;;;;;;;12.48;11.18;;;13.30;99.90;;;;;;5094337;28;20043;-69
2021/08/12 04:34:12;;;;;;;15.68;11.98;;;13.20;99.90;;;;;;5094529;28;20016;-69
2021/08/12 04:36:38;;;;;;;13.80;12.13;;;13.30;99.90;;;;;;5095005;28;20081;-68
2021/08/12 04:39:04;;;;;;;13.63;11.25;;;13.30;99.90;;;;;;5093937;28;20047;-72
2021/08/12 04:41:30;;;;;;;13.15;11.68;;;13.30;99.90;;;;;;5092849;28;20710;-69
2021/08/12 04:43:55;;;;;;;13.27;11.60;;;13.30;99.90;;;;;;5094577;28;20031;-69
2021/08/12 04:46:21;;;;;;;15.82;11.98;;;13.30;99.90;;;;;;5093669;28;20469;-69
2021/08/12 04:48:47;;;;;;;14.68;11.90;;;13.40;99.90;;;;;;5094640;28;20421;-69
2021/08/12 04:51:13;;;;;;;14.18;11.73;;;13.40;99.90;;;;;;5094847;28;20480;-69
2021/08/12 04:53:39;;;;;;;13.85;12.13;;;13.40;99.90;;;;;;5094414;28;20031;-70
2021/08/12 04:56:05;;;;;;;13.38;11.98;;;13.40;99.90;;;;;;5093438;28;20024;-69
2021/08/12 04:58:31;;;;;;;14.85;11.85;;;13.50;99.90;;;;;;5094552;28;20528;-69
2021/08/12 05:00:56;;;;;;;12.40;11.10;;;13.50;99.90;;;;;;5093050;28;20475;-70
2021/08/12 05:03:22;;;;;;;13.02;11.70;;;13.50;99.90;;;;;;5094557;28;20021;-71
2021/08/12 05:05:48;;;;;;;12.68;11.38;;;13.60;99.90;;;;;;5094100;28;20020;-69
2021/08/12 05:08:13;;;;;;;12.60;11.27;;;13.50;99.90;;;;;;5092221;28;20346;-69
2021/08/12 05:10:39;;;;;;;12.02;10.70;;;13.50;99.90;;;;;;5093654;28;20044;-69
2021/08/12 05:13:04;;;;;;;13.15;11.23;;;13.50;99.90;;;;;;5093592;28;20024;-69
2021/08/12 05:15:30;;;;;;;13.63;10.65;;;13.60;99.90;;;;;;5093154;28;20025;-69
2021/08/12 05:17:55;;;;;;;11.85;10.68;;;13.60;99.90;;;;;;5093651;28;20020;-68
2021/08/12 05:20:21;;;;;;;13.80;11.70;;;13.60;99.90;;;;;;5093811;28;20027;-69
2021/08/12 05:22:47;;;;;;;14.82;11.95;;;13.60;99.90;;;;;;5092814;28;20406;-69
2021/08/12 05:25:13;;;;;;;13.52;11.18;;;13.60;99.90;;;;;;5093729;28;20104;-69
2021/08/12 05:27:39;;;;;;;13.65;11.73;;;13.60;99.90;;;;;;5093373;28;20020;-68
2021/08/12 05:30:05;;;;;;;13.50;11.95;;;13.60;99.90;;;;;;5093245;28;20153;-69
2021/08/12 05:32:30;;;;;;;15.52;12.18;;;13.70;99.90;;;;;;5093547;28;20032;-69
2021/08/12 05:34:56;;;;;;;18.17;12.48;;;13.70;99.90;;;;;;5092680;28;20024;-68
2021/08/12 05:37:22;;;;;;;13.55;12.15;;;13.70;99.90;;;;;;5093500;28;20016;-69
2021/08/12 05:39:47;;;;;;;14.00;12.23;;;13.80;99.90;;;;;;5093132;28;20028;-69
2021/08/12 05:42:13;;;;;;;15.10;13.50;;;13.80;99.90;;;;;;5092833;28;20028;-71
2021/08/12 05:44:38;;;;;;;13.93;12.43;;;13.90;99.90;;;;;;5093300;28;20020;-69
2021/08/12 05:47:04;;;;;;;15.00;13.45;;;14.00;99.90;;;;;;5091720;28;20032;-70
2021/08/12 05:49:29;;;;;;;15.15;12.38;;;14.00;99.90;;;;;;5091321;28;20115;-69
2021/08/12 05:51:55;;;;;;;15.50;13.20;;;14.10;99.90;;;;;;5093014;28;20032;-69
2021/08/12 05:54:21;;;;;;;15.55;13.35;;;14.20;99.90;;;;;;5093415;28;20095;-70
2021/08/12 05:56:46;;;;;;;15.05;13.30;;;14.30;99.90;;;;;;5090570;28;20438;-69
2021/08/12 05:59:12;;;;;;;14.50;13.00;;;14.40;99.90;;;;;;5093034;28;20027;-69
2021/08/12 06:01:38;;;;;;;23.38;13.15;;;14.40;99.90;;;;;;5093202;28;20511;-69
2021/08/12 06:04:03;;;;;;;15.23;12.02;;;14.50;99.90;;;;;;5092137;28;20107;-70
2021/08/12 06:06:32;;;;;;;17.77;12.68;;;14.50;99.90;;;;;;5093175;28;20028;-71
2021/08/12 06:08:58;;;;;;;14.15;12.65;;;14.60;99.90;;;;;;5092685;28;20031;-71
2021/08/12 06:11:23;;;;;;;14.27;12.80;;;14.70;99.90;;;;;;5092265;28;20052;-70
2021/08/12 06:13:49;;;;;;;12.85;11.55;;;14.80;99.90;;;;;;5092647;28;20492;-69
2021/08/12 06:16:14;;;;;;;14.18;12.77;;;14.80;99.90;;;;;;5092977;28;20032;-74
2021/08/12 06:18:40;;;;;;;13.35;12.02;;;14.90;99.90;;;;;;5092309;28;20020;-70
2021/08/12 06:21:06;;;;;;;13.93;12.48;;;15.10;99.90;;;;;;5087890;28;20101;-69
2021/08/12 06:23:31;;;;;;;14.27;12.77;;;15.10;99.90;;;;;;5092724;28;20408;-69
2021/08/12 06:25:58;;;;;;;13.35;11.82;;;15.20;99.90;;;;;;5089842;28;20016;-70
2021/08/12 06:28:24;;;;;;;15.20;13.52;;;15.40;99.90;;;;;;5092747;28;20023;-69
2021/08/12 06:30:50;;;;;;;14.50;12.75;;;15.50;99.90;;;;;;5086975;28;20070;-74
2021/08/12 06:33:16;;;;;;;14.55;12.27;;;15.60;99.90;;;;;;5091348;28;20052;-70
2021/08/12 06:35:41;;;;;;;16.40;14.63;;;15.80;99.90;;;;;;5101815;28;20033;-72
2021/08/12 06:38:07;;;;;;;14.10;12.70;;;15.90;99.90;;;;;;5091803;28;20064;-69
2021/08/12 06:40:33;;;;;;;14.77;13.05;;;16.10;99.90;;;;;;5092655;28;20020;-72
2021/08/12 06:42:58;;;;;;;14.23;12.18;;;16.20;99.90;;;;;;5091350;28;20021;-70
2021/08/12 06:45:25;;;;;;;14.15;12.77;;;16.30;99.90;;;;;;5091852;28;20415;-71
2021/08/12 06:47:52;;;;;;;15.10;13.55;;;16.40;99.90;;;;;;5079413;28;20091;-70
2021/08/12 06:50:19;;;;;;;14.35;12.85;;;16.40;99.90;;;;;;5095344;28;20092;-72
2021/08/12 06:52:45;;;;;;;12.90;11.52;;;16.50;99.90;;;;;;5111573;28;20511;-75
2021/08/12 06:55:11;;;;;;;14.65;12.20;;;16.60;99.90;;;;;;5112858;28;20072;-71
2021/08/12 06:57:37;;;;;;;15.98;13.27;;;16.60;99.90;;;;;;5090752;28;20016;-72
2021/08/12 07:00:07;;;;;;;12.73;11.50;;;16.60;99.90;;;;;;5089941;28;20032;-70
2021/08/12 07:02:32;;;;;;;14.68;13.02;;;16.60;99.90;;;;;;5092421;28;20069;-73
2021/08/12 07:04:58;;;;;;;13.77;12.30;;;16.70;99.90;;;;;;5090747;28;20024;-73
2021/08/12 07:07:23;;;;;;;16.45;12.68;;;16.80;99.90;;;;;;5091425;28;20530;-72
2021/08/12 07:09:51;;;;;;;13.52;11.38;;;16.80;99.90;;;;;;5092561;28;20020;-72
2021/08/12 07:12:17;;;;;;;15.52;11.70;;;16.90;99.90;;;;;;5096102;28;20039;-71
2021/08/12 07:14:42;;;;;;;16.02;11.65;;;17.00;99.90;;;;;;5088138;28;20031;-71
2021/08/12 07:17:08;;;;;;;15.85;10.95;;;17.10;99.90;;;;;;5074402;28;20020;-69
2021/08/12 07:19:34;;;;;;;13.45;12.05;;;17.20;99.90;;;;;;5074350;28;20025;-80
2021/08/12 07:21:59;;;;;;;13.45;10.85;;;17.20;99.90;;;;;;5073192;28;20048;-69
2021/08/12 07:24:25;;;;;;;13.15;10.43;;;17.30;99.90;;;;;;5076617;28;20042;-70
2021/08/12 07:26:52;;;;;;;11.80;10.60;;;17.40;99.90;;;;;;5094178;28;20379;-78
2021/08/12 07:29:18;;;;;;;12.05;10.55;;;17.50;99.90;;;;;;5111299;28;20085;-70
2021/08/12 07:31:44;;;;;;;14.77;10.85;;;17.60;99.90;;;;;;5095939;28;20039;-83
2021/08/12 07:37:47;;;;;;;;;;;17.70;99.90;;;;;;5097177;28;20032;-83
2021/08/12 07:40:13;;;;;;;13.25;10.50;;;17.70;99.90;;;;;;5095223;28;20363;-71
2021/08/12 07:42:39;;;;;;;10.75;9.48;;;17.90;99.90;;;;;;5077261;28;20071;-86
2021/08/12 07:45:05;;;;;;;11.05;9.77;;;18.00;99.90;;;;;;5073982;28;20481;-71
2021/08/12 07:47:32;;;;;;;12.38;9.07;;;18.00;99.90;;;;;;5075394;28;20021;-72
2021/08/12 07:49:58;;;;;;;9.50;8.55;;;18.10;99.90;;;;;;5074009;28;20511;-71
2021/08/12 07:52:24;;;;;;;10.95;8.38;;;18.20;99.90;;;;;;5073919;28;20389;-73
2021/08/12 07:54:50;;;;;;;9.25;7.90;;;18.30;99.90;;;;;;5074801;28;20469;-72
2021/08/12 07:57:16;;;;;;;8.85;7.60;;;18.30;99.90;;;;;;5074588;28;20027;-71
2021/08/12 07:59:42;;;;;;;9.15;8.02;;;18.30;99.90;;;;;;5074703;28;20021;-71
2021/08/12 08:02:08;;;;;;;8.82;7.32;;;18.50;99.90;;;;;;5073807;28;20475;-71
2021/08/12 08:04:33;;;;;;;8.18;7.35;;;18.50;99.90;;;;;;5074508;28;20099;-72
2021/08/12 08:07:02;;;;;;;8.43;6.82;;;18.60;99.90;;;;;;5074855;28;20021;-72
2021/08/12 08:09:27;;;;;;;8.38;7.05;;;18.70;99.90;;;;;;5072890;28;20027;-71
2021/08/12 08:11:53;;;;;;;9.32;7.50;;;18.70;99.90;;;;;;5074525;28;20048;-72
2021/08/12 08:14:18;;;;;;;9.45;7.68;;;18.80;99.90;;;;;;5074867;28;20020;-71
2021/08/12 08:16:44;;;;;;;11.63;8.35;;;18.90;99.90;;;;;;5073958;28;20105;-71
2021/08/12 08:19:10;;;;;;;9.25;8.25;;;19.00;99.90;;;;;;5074896;28;20419;-72
2021/08/12 08:21:39;;;;;;;11.95;8.30;;;19.00;99.90;;;;;;5074259;28;20028;-71
2021/08/12 08:24:05;;;;;;;9.57;7.97;;;19.10;99.90;;;;;;5072490;28;20032;-71
2021/08/12 08:26:30;;;;;;;9.60;7.63;;;19.20;99.90;;;;;;5074635;28;20036;-72
2021/08/12 08:28:56;;;;;;;8.30;7.43;;;19.20;99.90;;;;;;5074376;28;20017;-71
2021/08/12 08:31:21;;;;;;;10.23;8.90;;;19.30;99.90;;;;;;5073856;28;20511;-73
2021/08/12 08:33:47;;;;;;;10.82;8.38;;;19.40;99.90;;;;;;5073047;28;20393;-71
2021/08/12 08:36:12;;;;;;;9.52;8.30;;;19.50;99.90;;;;;;5074516;28;20362;-73
2021/08/12 08:38:38;;;;;;;10.57;8.13;;;19.60;99.90;;;;;;5072450;28;20086;-71
2021/08/12 08:41:04;;;;;;;12.02;9.00;;;19.70;99.90;;;;;;5072626;28;20016;-71
2021/08/12 08:43:31;;;;;;;8.95;7.65;;;19.80;99.90;;;;;;5073037;28;20028;-71
2021/08/12 08:45:59;;;;;;;7.40;6.57;;;19.90;99.90;;;;;;5072030;28;20380;-71
2021/08/12 08:48:26;;;;;;;11.27;8.43;;;19.90;99.90;;;;;;5074142;28;20021;-73
2021/08/12 08:50:53;;;;;;;10.38;8.18;;;20.00;99.90;;;;;;5073810;28;20033;-71
2021/08/12 08:53:19;;;;;;;11.35;8.00;;;20.00;99.90;;;;;;5073621;28;20025;-73
2021/08/12 08:55:45;;;;;;;9.75;7.97;;;20.10;99.90;;;;;;5073748;28;20044;-71
2021/08/12 08:58:12;;;;;;;10.15;7.72;;;20.10;99.90;;;;;;5074138;28;20043;-71
2021/08/12 09:00:38;;;;;;;11.07;7.75;;;20.20;99.90;;;;;;5071995;28;20021;-70
2021/08/12 09:03:03;;;;;;;9.60;7.47;;;20.20;99.90;;;;;;5073748;28;20036;-71
2021/08/12 09:05:29;;;;;;;12.90;6.68;;;20.30;99.90;;;;;;5074018;28;20032;-71
2021/08/12 09:07:55;;;;;;;7.70;6.22;;;20.40;99.90;;;;;;5073107;28;20472;-71
2021/08/12 09:10:21;;;;;;;12.10;6.68;;;20.50;99.90;;;;;;5072079;28;20044;-71
2021/08/12 09:12:48;;;;;;;8.52;6.35;;;20.50;99.90;;;;;;5072988;28;20029;-71
2021/08/12 09:15:24;;;;;;;8.45;6.03;;;20.60;99.90;;;;;;5073754;28;20060;-72
2021/08/12 09:17:51;;;;;;;8.32;6.43;;;20.70;99.90;;;;;;5073421;28;20020;-71
2021/08/12 09:20:23;;;;;;;10.73;7.03;;;20.80;99.90;;;;;;5073058;28;20013;-71
2021/08/12 09:22:50;;;;;;;8.90;6.65;;;20.90;99.90;;;;;;5073250;28;20020;-70
2021/08/12 09:25:34;;;;;;;9.07;6.22;;;21.00;99.90;;;;;;5073500;28;20029;-71
2021/08/12 09:28:14;;;;;;;7.97;6.80;;;21.00;99.90;;;;;;5072695;28;20890;-71
2021/08/12 09:30:40;;;;;;;7.10;5.50;;;21.00;99.90;;;;;;5073266;28;20060;-71
2021/08/12 09:33:06;;;;;;;7.15;5.70;;;21.10;99.90;;;;;;5072548;28;20032;-72
2021/08/12 09:35:32;;;;;;;8.55;5.63;;;21.10;99.90;;;;;;5072498;28;20031;-71
2021/08/12 09:38:08;;;;;;;6.70;5.43;;;21.10;99.90;;;;;;5072999;28;20032;-72
2021/08/12 09:40:34;;;;;;;6.03;5.18;;;21.20;99.90;;;;;;5073447;28;20473;-71
2021/08/12 09:43:02;;;;;;;8.05;4.60;;;21.20;99.90;;;;;;5072233;28;20029;-72
2021/08/12 09:45:30;;;;;;;4.93;4.43;;;21.20;99.90;;;;;;5071856;28;20480;-72
2021/08/12 09:48:07;;;;;;;6.38;5.05;;;21.30;99.90;;;;;;5070878;28;20123;-72
2021/08/12 09:50:35;;;;;;;6.30;5.28;;;21.30;99.90;;;;;;5072957;28;20034;-71
2021/08/12 09:53:01;;;;;;;8.57;5.10;;;21.40;99.90;;;;;;5073126;28;20028;-72
2021/08/12 09:55:27;;;;;;;11.15;6.05;;;21.50;99.90;;;;;;5072499;28;20024;-72
2021/08/12 09:58:06;;;;;;;7.38;4.95;;;21.60;99.90;;;;;;5071449;28;20032;-71
2021/08/12 10:00:35;;;;;;;6.97;5.60;;;21.60;99.90;;;;;;5073058;28;20162;-71
2021/08/12 10:03:17;;;;;;;5.53;4.93;;;21.70;99.90;;;;;;5070611;28;20085;-71
2021/08/12 10:05:43;;;;;;;7.78;5.80;;;21.80;99.90;;;;;;5072807;28;20457;-71
2021/08/12 10:08:08;;;;;;;5.43;4.72;;;21.80;99.90;;;;;;5073034;28;20035;-72
2021/08/12 10:10:34;;;;;;;6.53;4.75;;;21.90;99.90;;;;;;5072088;28;20047;-71
2021/08/12 10:13:01;;;;;;;6.22;4.85;;;22.00;99.90;;;;;;5072544;28;20051;-73
2021/08/12 10:15:29;;;;;;;5.40;4.25;;;22.00;99.90;;;;;;5072749;28;20052;-71
2021/08/12 10:17:57;;;;;;;5.18;3.90;;;22.00;99.90;;;;;;5071875;28;20043;-74
2021/08/12 10:20:25;;;;;;;6.43;4.32;;;22.00;99.90;;;;;;5071397;28;20381;-71
2021/08/12 10:22:53;;;;;;;5.00;4.50;;;22.10;99.90;;;;;;5072549;28;20009;-74
2021/08/12 10:25:20;;;;;;;5.82;4.20;;;22.20;99.90;;;;;;5072087;28;20032;-72
2021/08/12 10:27:48;;;;;;;8.07;4.00;;;22.30;99.90;;;;;;5071098;28;20385;-72
2021/08/12 10:30:15;;;;;;;7.97;4.90;;;22.30;99.90;;;;;;5072032;28;20028;-71
2021/08/12 10:32:47;;;;;;;9.93;4.85;;;22.40;99.90;;;;;;5072615;28;20039;-72
2021/08/12 10:35:13;;;;;;;11.77;5.38;;;22.50;99.90;;;;;;5072847;28;20021;-74
2021/08/12 10:37:39;;;;;;;6.07;4.95;;;22.50;99.90;;;;;;5071936;28;20025;-72
2021/08/12 10:40:07;;;;;;;4.97;4.47;;;22.60;99.50;;;;;;5072293;28;20224;-73
2021/08/12 10:42:33;;;;;;;5.35;4.50;;;22.70;99.50;;;;;;5072461;28;20170;-72
2021/08/12 10:44:58;;;;;;;8.13;5.55;;;22.80;99.40;;;;;;5075408;28;20100;-72
2021/08/12 10:47:41;;;;;;;6.50;5.40;;;22.80;99.20;;;;;;5075325;28;20105;-72
2021/08/12 10:50:22;;;;;;;7.45;5.25;;;22.80;99.40;;;;;;5076525;28;20032;-72
2021/08/12 10:53:10;;;;;;;7.03;5.20;;;22.80;99.50;;;;;;5075629;28;20476;-72
2021/08/12 10:55:57;;;;;;;7.63;5.50;;;22.90;99.60;;;;;;5076652;28;20044;-72
2021/08/12 10:58:23;;;;;;;5.25;4.45;;;22.90;99.60;;;;;;5075603;28;20020;-72
2021/08/12 11:00:56;;;;;;;7.20;5.75;;;22.90;99.80;;;;;;5075877;28;20484;-71
2021/08/12 11:03:34;;;;;;;10.82;5.72;;;22.90;99.50;;;;;;5076517;28;20028;-73
2021/08/12 11:06:07;;;;;;;5.95;5.00;;;22.90;99.10;;;;;;5075351;28;20027;-72
2021/08/12 11:08:59;;;;;;;6.30;4.90;;;23.00;99.20;;;;;;5075044;28;20550;-71
2021/08/12 11:11:30;;;;;;;8.25;4.78;;;23.10;99.40;;;;;;5074727;28;20400;-73
2021/08/12 11:13:58;;;;;;;5.70;4.57;;;23.20;99.40;;;;;;5075088;28;20023;-70
2021/08/12 11:16:25;;;;;;;5.95;4.63;;;23.20;99.30;;;;;;5075986;28;20525;-71
2021/08/12 11:18:52;;;;;;;7.82;4.88;;;23.30;98.70;;;;;;5075756;28;20016;-71
2021/08/12 11:21:30;;;;;;;5.68;4.50;;;23.40;98.30;;;;;;5073832;28;20039;-72
2021/08/12 11:23:56;;;;;;;5.50;4.30;;;23.60;98.30;;;;;;5074252;28;20056;-72
2021/08/12 11:26:22;;;;;;;6.75;4.95;;;23.80;98.30;;;;;;5075263;28;20025;-71
2021/08/12 11:28:49;;;;;;;5.93;5.28;;;23.80;97.90;;;;;;5074019;28;20081;-70
2021/08/12 11:31:20;;;;;;;10.40;5.45;;;23.90;97.40;;;;;;5075519;28;20028;-73
2021/08/12 11:33:47;;;;;;;7.50;5.32;;;24.00;97.30;;;;;;5075005;28;20037;-71
2021/08/12 11:36:15;;;;;;;8.02;5.53;;;24.00;97.30;;;;;;5075636;28;20029;-71
2021/08/12 11:38:52;;;;;;;9.52;4.93;;;24.10;97.30;;;;;;5074133;28;20020;-71
2021/08/12 11:41:20;;;;;;;5.50;4.28;;;24.00;97.20;;;;;;5074904;28;20021;-71
2021/08/12 11:43:46;;;;;;;4.00;3.60;;;24.00;97.60;;;;;;5075132;28;20025;-71
2021/08/12 11:46:13;;;;;;;4.38;3.88;;;24.10;97.80;;;;;;5075579;28;20027;-72
2021/08/12 11:48:39;;;;;;;5.05;4.43;;;24.10;98.10;;;;;;5074867;28;20503;-75
2021/08/12 11:51:05;;;;;;;6.25;4.22;;;24.20;98.10;;;;;;5073622;28;20032;-71
2021/08/12 11:53:37;;;;;;;5.65;4.47;;;24.40;97.90;;;;;;5075473;28;20017;-72
2021/08/12 11:56:21;;;;;;;6.68;4.40;;;24.60;97.30;;;;;;5073489;28;20058;-70
2021/08/12 11:58:52;;;;;;;7.80;4.80;;;24.90;96.60;;;;;;5074951;28;20083;-70
2021/08/12 12:01:30;;;;;;;5.15;4.22;;;25.10;95.70;;;;;;5075031;28;20492;-71
2021/08/12 12:04:04;;;;;;;5.53;4.28;;;25.20;95.70;;;;;;5074563;28;20029;-71
2021/08/12 12:06:36;;;;;;;5.93;4.85;;;25.30;95.70;;;;;;5073860;28;20024;-71
2021/08/12 12:09:21;;;;;;;6.32;4.72;;;25.40;95.10;;;;;;5074084;28;20108;-73
2021/08/12 12:11:55;;;;;;;4.82;4.32;;;25.50;95.00;;;;;;5074474;28;20103;-70
2021/08/12 12:14:23;;;;;;;6.40;5.00;;;25.50;94.60;;;;;;5075031;28;20494;-75
2021/08/12 12:17:19;;;;;;;8.30;5.07;;;25.50;94.20;;;;;;5073907;28;20485;-72
2021/08/12 12:20:04;;;;;;;5.97;4.30;;;25.50;94.80;;;;;;5074575;28;20166;-72
2021/08/12 12:22:32;;;;;;;4.32;3.80;;;25.70;94.60;;;;;;5074813;28;20031;-74
2021/08/12 12:25:03;;;;;;;6.00;4.97;;;25.90;94.80;;;;;;5072338;28;20503;-74
2021/08/12 12:27:30;;;;;;;7.28;4.80;;;26.00;93.70;;;;;;5074854;28;20028;-71
2021/08/12 12:30:13;;;;;;;5.88;4.40;;;25.90;93.70;;;;;;5073652;28;20052;-71
2021/08/12 12:32:44;;;;;;;5.40;4.22;;;25.90;93.70;;;;;;5074440;28;20043;-72
2021/08/12 12:35:11;;;;;;;6.03;4.82;;;25.90;93.70;;;;;;5074644;28;20024;-71
2021/08/12 12:37:41;;;;;;;6.28;4.63;;;25.90;93.70;;;;;;5073942;28;20055;-74
2021/08/12 12:40:17;;;;;;;7.80;4.63;;;25.90;93.30;;;;;;5074506;28;20101;-76
2021/08/12 12:42:43;;;;;;;6.85;4.97;;;25.80;93.50;;;;;;5072727;28;20074;-72
2021/08/12 12:45:10;;;;;;;4.80;4.15;;;25.80;93.60;;;;;;5074006;28;20076;-72